createdAt,value
2017-05-02T00:01:03.660Z,21.6
2017-05-02T00:02:11.749Z,21.6
2017-05-02T00:03:19.834Z,21.7
2017-05-02T00:04:27.946Z,21.6
2017-05-02T00:05:36.007Z,21.6
2017-05-02T00:06:44.099Z,21.7
2017-05-02T00:07:52.185Z,21.6
2017-05-02T00:09:00.267Z,21.6
2017-05-02T00:10:08.358Z,21.5
2017-05-02T00:11:16.443Z,21.6
2017-05-02T00:12:24.530Z,21.6
2017-05-02T00:13:32.615Z,21.6
2017-05-02T00:14:40.701Z,21.6
2017-05-02T00:15:48.787Z,21.5
2017-05-02T00:16:56.875Z,21.5
2017-05-02T00:18:04.962Z,21.6
2017-05-02T00:19:13.051Z,21.5
2017-05-02T00:20:21.137Z,21.5
2017-05-02T00:21:29.223Z,21.5
2017-05-02T00:22:37.310Z,21.5
2017-05-02T00:23:45.395Z,21.5
2017-05-02T00:24:53.483Z,21.5
2017-05-02T00:26:01.577Z,21.5
2017-05-02T00:27:09.660Z,21.5
2017-05-02T00:28:17.750Z,21.4
2017-05-02T00:29:25.847Z,21.5
2017-05-02T00:30:33.926Z,21.5
2017-05-02T00:31:42.007Z,21.4
2017-05-02T00:32:50.098Z,21.4
2017-05-02T00:33:58.182Z,21.4
2017-05-02T00:35:06.268Z,21.5
2017-05-02T00:36:14.357Z,21.4
2017-05-02T00:37:22.443Z,21.4
2017-05-02T00:38:30.528Z,21.4
2017-05-02T00:39:38.654Z,21.4
2017-05-02T00:40:46.727Z,21.4
2017-05-02T00:41:54.792Z,21.4
2017-05-02T00:43:02.873Z,21.4
2017-05-02T00:44:10.962Z,21.4
2017-05-02T00:45:19.059Z,21.3
2017-05-02T00:46:27.136Z,21.4
2017-05-02T00:47:35.225Z,21.3
2017-05-02T00:48:43.313Z,21.4
2017-05-02T00:49:51.396Z,21.4
2017-05-02T00:50:59.484Z,21.3
2017-05-02T00:52:07.567Z,21.3
2017-05-02T00:53:15.653Z,21.3
2017-05-02T00:54:23.741Z,21.3
2017-05-02T00:55:31.836Z,21.3
2017-05-02T00:56:39.923Z,21.3
2017-05-02T00:57:48.009Z,21.4
2017-05-02T00:58:56.103Z,21.4
2017-05-02T01:00:04.180Z,21.3
2017-05-02T01:01:12.264Z,21.3
2017-05-02T01:02:20.353Z,21.4
2017-05-02T01:03:28.440Z,21.4
2017-05-02T01:04:36.528Z,21.3
2017-05-02T01:05:44.615Z,21.3
2017-05-02T01:06:52.701Z,21.3
2017-05-02T01:08:00.788Z,21.4
2017-05-02T01:09:08.875Z,21.3
2017-05-02T01:10:16.960Z,21.3
2017-05-02T01:11:25.065Z,21.4
2017-05-02T01:12:33.148Z,21.4
2017-05-02T01:13:41.226Z,21.3
2017-05-02T01:14:49.313Z,21.3
2017-05-02T01:15:57.403Z,21.3
2017-05-02T01:17:05.487Z,21.4
2017-05-02T01:18:13.574Z,21.3
2017-05-02T01:19:21.662Z,21.3
2017-05-02T01:20:29.747Z,21.3
2017-05-02T01:21:37.834Z,21.4
2017-05-02T01:22:45.926Z,21.3
2017-05-02T01:23:54.009Z,21.3
2017-05-02T01:25:02.094Z,21.3
2017-05-02T01:26:10.181Z,21.3
2017-05-02T01:27:18.271Z,21.3
2017-05-02T01:28:26.355Z,21.3
2017-05-02T01:29:34.443Z,21.3
2017-05-02T01:30:42.527Z,21.3
2017-05-02T01:31:50.620Z,21.3
2017-05-02T01:32:58.704Z,21.4
2017-05-02T01:34:06.789Z,21.4
2017-05-02T01:35:14.880Z,21.3
2017-05-02T01:36:22.962Z,21.3
2017-05-02T01:37:31.050Z,21.4
2017-05-02T01:38:39.135Z,21.4
2017-05-02T01:39:47.221Z,21.3
2017-05-02T01:40:55.307Z,21.4
2017-05-02T01:42:03.393Z,21.3
2017-05-02T01:43:11.482Z,21.3
2017-05-02T01:44:19.569Z,21.4
2017-05-02T01:45:27.660Z,21.4
2017-05-02T01:46:35.743Z,21.4
2017-05-02T01:47:43.830Z,21.5
2017-05-02T01:48:51.914Z,21.4
2017-05-02T01:50:00.002Z,21.4
2017-05-02T01:51:08.089Z,21.4
2017-05-02T01:52:16.177Z,21.4
2017-05-02T01:53:24.263Z,21.5
2017-05-02T01:54:32.352Z,21.4
2017-05-02T01:55:40.438Z,21.4
2017-05-02T01:56:48.523Z,21.5
2017-05-02T01:57:56.606Z,21.4
2017-05-02T01:59:04.694Z,21.5
2017-05-02T02:00:12.781Z,21.5
2017-05-02T02:01:20.874Z,21.5
2017-05-02T02:02:28.955Z,21.5
2017-05-02T02:03:37.077Z,21.5
2017-05-02T02:04:45.129Z,21.5
2017-05-02T02:05:53.218Z,21.5
2017-05-02T02:07:01.309Z,21.5
2017-05-02T02:08:09.403Z,21.5
2017-05-02T02:09:17.484Z,21.5
2017-05-02T02:10:25.572Z,21.5
2017-05-02T02:11:33.656Z,21.5
2017-05-02T02:12:41.744Z,21.5
2017-05-02T02:13:49.829Z,21.5
2017-05-02T02:14:57.918Z,21.6
2017-05-02T02:16:06.004Z,21.5
2017-05-02T02:17:14.091Z,21.6
2017-05-02T02:18:22.176Z,21.5
2017-05-02T02:19:30.263Z,21.6
2017-05-02T02:20:38.349Z,21.6
2017-05-02T02:21:46.437Z,21.5
2017-05-02T02:22:54.524Z,21.6
2017-05-02T02:24:02.610Z,21.5
2017-05-02T02:25:10.699Z,21.6
2017-05-02T02:26:18.784Z,21.6
2017-05-02T02:27:26.871Z,21.6
2017-05-02T02:28:34.957Z,21.6
2017-05-02T02:29:43.047Z,21.6
2017-05-02T02:30:51.133Z,21.6
2017-05-02T02:31:59.222Z,21.6
2017-05-02T02:33:07.309Z,21.5
2017-05-02T02:34:15.394Z,21.6
2017-05-02T02:35:23.480Z,21.7
2017-05-02T02:36:31.567Z,21.6
2017-05-02T02:37:39.654Z,21.6
2017-05-02T02:38:47.742Z,21.6
2017-05-02T02:39:55.827Z,21.6
2017-05-02T02:41:03.915Z,21.7
2017-05-02T02:42:12.027Z,21.6
2017-05-02T02:43:20.091Z,21.6
2017-05-02T02:44:28.178Z,21.6
2017-05-02T02:45:36.263Z,21.6
2017-05-02T02:46:44.349Z,21.7
2017-05-02T02:47:52.433Z,21.6
2017-05-02T02:49:00.522Z,21.6
2017-05-02T02:50:08.608Z,21.6
2017-05-02T02:51:16.699Z,21.6
2017-05-02T02:52:24.783Z,21.6
2017-05-02T02:53:32.877Z,21.6
2017-05-02T02:54:40.958Z,21.6
2017-05-02T02:55:49.043Z,21.6
2017-05-02T02:56:57.127Z,21.6
2017-05-02T02:58:05.222Z,21.6
2017-05-02T02:59:13.302Z,21.6
2017-05-02T03:00:21.392Z,21.6
2017-05-02T03:01:29.476Z,21.6
2017-05-02T03:02:37.563Z,21.6
2017-05-02T03:03:45.657Z,21.6
2017-05-02T03:04:53.739Z,21.7
2017-05-02T03:06:01.825Z,21.6
2017-05-02T03:07:09.909Z,21.6
2017-05-02T03:08:17.998Z,21.6
2017-05-02T03:09:26.083Z,21.7
2017-05-02T03:10:34.174Z,21.7
2017-05-02T03:11:42.258Z,21.6
2017-05-02T03:12:50.346Z,21.7
2017-05-02T03:13:58.430Z,21.6
2017-05-02T03:15:06.525Z,21.6
2017-05-02T03:16:14.605Z,21.6
2017-05-02T03:17:22.699Z,21.6
2017-05-02T03:18:30.779Z,21.6
2017-05-02T03:19:38.865Z,21.6
2017-05-02T03:20:46.952Z,21.6
2017-05-02T03:21:55.039Z,21.6
2017-05-02T03:23:03.126Z,21.6
2017-05-02T03:24:11.216Z,21.6
2017-05-02T03:25:19.303Z,21.7
2017-05-02T03:26:27.390Z,21.6
2017-05-02T03:27:35.477Z,21.6
2017-05-02T03:28:43.561Z,21.6
2017-05-02T03:29:51.650Z,21.6
2017-05-02T03:30:59.736Z,21.6
2017-05-02T03:32:07.822Z,21.6
2017-05-02T03:33:15.911Z,21.6
2017-05-02T03:34:24.117Z,21.7
2017-05-02T03:35:32.084Z,21.6
2017-05-02T03:36:40.170Z,21.6
2017-05-02T03:37:48.255Z,21.6
2017-05-02T03:38:56.344Z,21.5
2017-05-02T03:40:04.431Z,21.5
2017-05-02T03:41:12.516Z,21.6
2017-05-02T03:42:20.605Z,21.6
2017-05-02T03:43:28.691Z,21.6
2017-05-02T03:44:36.803Z,21.5
2017-05-02T03:45:44.866Z,21.5
2017-05-02T03:46:52.952Z,21.6
2017-05-02T03:48:01.043Z,21.6
2017-05-02T03:49:09.137Z,21.5
2017-05-02T03:50:17.226Z,21.5
2017-05-02T03:51:25.335Z,21.5
2017-05-02T03:52:33.399Z,21.5
2017-05-02T03:53:41.485Z,21.6
2017-05-02T03:54:49.571Z,21.5
2017-05-02T03:55:57.658Z,21.5
2017-05-02T03:57:05.745Z,21.6
2017-05-02T03:58:13.834Z,21.5
2017-05-02T03:59:21.922Z,21.5
2017-05-02T04:00:30.007Z,21.5
2017-05-02T04:01:38.093Z,21.5
2017-05-02T04:02:46.181Z,21.5
2017-05-02T04:03:54.269Z,21.5
2017-05-02T04:05:02.351Z,21.5
2017-05-02T04:06:10.441Z,21.4
2017-05-02T04:07:18.526Z,21.5
2017-05-02T04:08:26.641Z,21.4
2017-05-02T04:09:34.701Z,21.4
2017-05-02T04:10:42.788Z,21.4
2017-05-02T04:11:50.876Z,21.4
2017-05-02T04:12:58.962Z,21.4
2017-05-02T04:14:07.048Z,21.4
2017-05-02T04:15:15.136Z,21.4
2017-05-02T04:16:23.221Z,21.4
2017-05-02T04:17:31.309Z,21.4
2017-05-02T04:18:39.398Z,21.4
2017-05-02T04:19:47.481Z,21.4
2017-05-02T04:20:55.572Z,21.4
2017-05-02T04:22:03.655Z,21.3
2017-05-02T04:23:11.742Z,21.3
2017-05-02T04:24:19.831Z,21.4
2017-05-02T04:25:27.939Z,21.3
2017-05-02T04:26:36.002Z,21.3
2017-05-02T04:27:44.091Z,21.3
2017-05-02T04:28:52.176Z,21.4
2017-05-02T04:30:00.266Z,21.3
2017-05-02T04:31:08.351Z,21.3
2017-05-02T04:32:16.437Z,21.3
2017-05-02T04:33:24.522Z,21.3
2017-05-02T04:34:32.609Z,21.3
2017-05-02T04:35:40.695Z,21.3
2017-05-02T04:36:48.784Z,21.3
2017-05-02T04:37:56.873Z,21.3
2017-05-02T04:39:04.959Z,21.3
2017-05-02T04:40:13.044Z,21.3
2017-05-02T04:41:21.133Z,21.3
2017-05-02T04:42:29.220Z,21.2
2017-05-02T04:43:37.306Z,21.3
2017-05-02T04:44:45.390Z,21.3
2017-05-02T04:45:53.475Z,21.3
2017-05-02T04:47:01.563Z,21.2
2017-05-02T04:48:09.651Z,21.2
2017-05-02T04:49:17.739Z,21.2
2017-05-02T04:50:25.824Z,21.1
2017-05-02T04:51:33.911Z,21.2
2017-05-02T04:52:42.021Z,21.1
2017-05-02T04:53:50.083Z,21.2
2017-05-02T04:54:58.171Z,21.2
2017-05-02T04:56:06.254Z,21.1
2017-05-02T04:57:14.371Z,21.2
2017-05-02T04:58:22.435Z,21.1
2017-05-02T04:59:30.523Z,21.1
2017-05-02T05:00:38.614Z,21.2
2017-05-02T05:01:46.696Z,21.1
2017-05-02T05:02:54.779Z,21.1
2017-05-02T05:04:02.866Z,21.1
2017-05-02T05:05:10.951Z,21.1
2017-05-02T05:06:19.040Z,21.0
2017-05-02T05:07:27.138Z,21.1
2017-05-02T05:08:35.215Z,21.1
2017-05-02T05:09:43.302Z,21.1
2017-05-02T05:10:51.387Z,21.0
2017-05-02T05:11:59.473Z,21.1
2017-05-02T05:13:07.558Z,21.1
2017-05-02T05:14:15.644Z,21.1
2017-05-02T05:15:23.732Z,21.1
2017-05-02T05:16:31.819Z,21.0
2017-05-02T05:17:39.905Z,21.1
2017-05-02T05:18:47.993Z,21.1
2017-05-02T05:19:56.076Z,21.0
2017-05-02T05:21:04.165Z,21.0
2017-05-02T05:22:12.250Z,21.0
2017-05-02T05:23:20.335Z,21.0
2017-05-02T05:24:28.424Z,21.0
2017-05-02T05:25:36.509Z,21.0
2017-05-02T05:26:44.599Z,21.0
2017-05-02T05:27:52.694Z,20.9
2017-05-02T05:29:00.771Z,21.1
2017-05-02T05:30:08.860Z,21.0
2017-05-02T05:31:16.943Z,21.0
2017-05-02T05:32:25.030Z,20.9
2017-05-02T05:33:33.117Z,21.0
2017-05-02T05:34:41.201Z,21.0
2017-05-02T05:35:49.288Z,20.9
2017-05-02T05:36:57.379Z,20.9
2017-05-02T05:38:05.461Z,20.9
2017-05-02T05:39:13.552Z,21.0
2017-05-02T05:40:21.635Z,21.0
2017-05-02T05:41:29.722Z,20.9
2017-05-02T05:42:37.809Z,20.9
2017-05-02T05:43:45.899Z,20.9
2017-05-02T05:44:53.983Z,20.9
2017-05-02T05:46:02.089Z,20.9
2017-05-02T05:47:10.160Z,20.9
2017-05-02T05:48:18.247Z,20.9
2017-05-02T05:49:26.334Z,20.9
2017-05-02T05:50:34.418Z,20.9
2017-05-02T05:51:42.504Z,20.9
2017-05-02T05:52:50.589Z,20.8
2017-05-02T05:53:58.685Z,20.8
2017-05-02T05:55:06.787Z,20.9
2017-05-02T05:56:14.849Z,20.8
2017-05-02T05:57:22.935Z,20.8
2017-05-02T05:58:31.024Z,20.8
2017-05-02T05:59:39.109Z,20.9
2017-05-02T06:00:47.193Z,20.8
2017-05-02T06:01:55.286Z,20.7
2017-05-02T06:03:03.372Z,20.8
2017-05-02T06:04:11.467Z,20.8
2017-05-02T06:05:19.550Z,20.7
2017-05-02T06:06:27.637Z,20.7
2017-05-02T06:07:35.844Z,20.7
2017-05-02T06:08:43.807Z,20.8
2017-05-02T06:09:51.893Z,20.8
2017-05-02T06:10:59.986Z,20.7
2017-05-02T06:12:08.073Z,20.7
2017-05-02T06:13:16.158Z,20.7
2017-05-02T06:14:24.245Z,20.6
2017-05-02T06:15:32.332Z,20.7
2017-05-02T06:16:40.416Z,20.7
2017-05-02T06:17:48.506Z,20.7
2017-05-02T06:18:56.589Z,20.7
2017-05-02T06:20:04.673Z,20.7
2017-05-02T06:21:12.758Z,20.7
2017-05-02T06:22:20.846Z,20.7
2017-05-02T06:23:28.932Z,20.6
2017-05-02T06:24:37.138Z,20.7
2017-05-02T06:25:45.102Z,20.7
2017-05-02T06:26:53.187Z,20.7
2017-05-02T06:28:01.279Z,20.6
2017-05-02T06:29:09.361Z,20.6
2017-05-02T06:30:17.445Z,20.6
2017-05-02T06:31:25.533Z,20.6
2017-05-02T06:32:33.621Z,20.6
2017-05-02T06:33:41.704Z,20.5
2017-05-02T06:34:49.790Z,20.5
2017-05-02T06:35:57.880Z,20.6
2017-05-02T06:37:05.962Z,20.4
2017-05-02T06:38:14.048Z,20.5
2017-05-02T06:39:22.134Z,20.5
2017-05-02T06:40:30.221Z,20.5
2017-05-02T06:41:38.315Z,20.5
2017-05-02T06:42:46.394Z,20.5
2017-05-02T06:43:54.477Z,20.5
2017-05-02T06:45:02.559Z,20.5
2017-05-02T06:46:10.646Z,20.5
2017-05-02T06:47:18.731Z,20.5
2017-05-02T06:48:26.817Z,20.5
2017-05-02T06:49:34.913Z,20.4
2017-05-02T06:50:42.997Z,20.4
2017-05-02T06:51:51.084Z,20.3
2017-05-02T06:52:59.170Z,20.4
2017-05-02T06:54:07.255Z,20.4
2017-05-02T06:55:15.337Z,20.4
2017-05-02T06:56:23.424Z,20.5
2017-05-02T06:57:31.512Z,20.5
2017-05-02T06:58:39.598Z,20.5
2017-05-02T06:59:47.682Z,20.5
2017-05-02T07:00:55.771Z,20.4
2017-05-02T07:02:03.862Z,20.5
2017-05-02T07:03:11.946Z,20.4
2017-05-02T07:04:20.033Z,20.4
2017-05-02T07:05:28.128Z,20.4
2017-05-02T07:06:36.205Z,20.5
2017-05-02T07:07:44.290Z,20.4
2017-05-02T07:08:52.377Z,20.3
2017-05-02T07:10:00.470Z,20.3
2017-05-02T07:11:08.546Z,20.5
2017-05-02T07:12:16.633Z,20.4
2017-05-02T07:13:24.717Z,20.3
2017-05-02T07:14:32.804Z,20.4
2017-05-02T07:15:40.891Z,20.4
2017-05-02T07:16:48.976Z,20.4
2017-05-02T07:17:57.061Z,20.4
2017-05-02T07:19:05.148Z,20.3
2017-05-02T07:20:13.233Z,20.4
2017-05-02T07:21:21.319Z,20.4
2017-05-02T07:22:29.419Z,20.4
2017-05-02T07:23:37.496Z,20.4
2017-05-02T07:24:45.581Z,20.4
2017-05-02T07:25:53.674Z,20.3
2017-05-02T07:27:01.759Z,20.3
2017-05-02T07:28:09.892Z,20.3
2017-05-02T07:29:17.930Z,20.3
2017-05-02T07:30:26.014Z,20.3
2017-05-02T07:31:34.100Z,20.3
2017-05-02T07:32:42.196Z,20.3
2017-05-02T07:33:50.271Z,20.3
2017-05-02T07:34:58.357Z,20.3
2017-05-02T07:36:06.442Z,20.2
2017-05-02T07:37:14.530Z,20.3
2017-05-02T07:38:23.328Z,20.3
2017-05-02T07:39:30.698Z,20.2
2017-05-02T07:40:38.785Z,20.2
2017-05-02T07:41:46.869Z,20.2
2017-05-02T07:42:54.955Z,20.2
2017-05-02T07:44:03.039Z,20.2
2017-05-02T07:45:11.234Z,20.1
2017-05-02T07:46:19.213Z,20.2
2017-05-02T07:47:27.302Z,20.2
2017-05-02T07:48:35.383Z,20.2
2017-05-02T07:49:43.563Z,20.2
2017-05-02T07:50:51.558Z,20.1
2017-05-02T07:51:59.644Z,20.2
2017-05-02T07:53:07.731Z,20.1
2017-05-02T07:54:15.816Z,20.2
2017-05-02T07:55:23.901Z,20.2
2017-05-02T07:56:31.994Z,20.2
2017-05-02T07:57:40.075Z,20.2
2017-05-02T07:58:48.162Z,20.3
2017-05-02T07:59:56.245Z,20.2
2017-05-02T08:01:04.332Z,20.1
2017-05-02T08:02:12.418Z,20.2
2017-05-02T08:03:20.503Z,20.1
2017-05-02T08:04:28.765Z,20.2
2017-05-02T08:05:36.738Z,20.1
2017-05-02T08:06:44.760Z,20.2
2017-05-02T08:07:52.851Z,20.2
2017-05-02T08:09:00.945Z,20.2
2017-05-02T08:10:09.029Z,20.1
2017-05-02T08:11:17.117Z,20.2
2017-05-02T08:12:25.443Z,20.2
2017-05-02T08:13:33.285Z,20.1
2017-05-02T08:14:41.370Z,20.2
2017-05-02T08:15:49.456Z,20.1
2017-05-02T08:16:57.541Z,20.1
2017-05-02T08:18:05.758Z,20.2
2017-05-02T08:19:13.766Z,20.1
2017-05-02T08:20:21.799Z,20.2
2017-05-02T08:21:29.889Z,20.2
2017-05-02T08:22:37.979Z,20.1
2017-05-02T08:23:46.171Z,20.1
2017-05-02T08:24:54.145Z,20.2
2017-05-02T08:26:02.231Z,20.1
2017-05-02T08:27:10.320Z,20.2
2017-05-02T08:28:18.459Z,20.2
2017-05-02T08:29:26.489Z,20.2
2017-05-02T08:30:34.600Z,20.2
2017-05-02T08:31:42.664Z,20.2
2017-05-02T08:32:50.747Z,20.2
2017-05-02T08:33:59.223Z,20.2
2017-05-02T08:35:06.954Z,20.1
2017-05-02T08:36:15.002Z,20.2
2017-05-02T08:37:23.089Z,20.2
2017-05-02T08:38:31.176Z,20.3
2017-05-02T08:39:39.266Z,20.1
2017-05-02T08:40:47.353Z,20.1
2017-05-02T08:41:55.441Z,20.2
2017-05-02T08:43:03.522Z,20.2
2017-05-02T08:44:11.609Z,20.2
2017-05-02T08:45:19.694Z,20.2
2017-05-02T08:46:27.791Z,20.3
2017-05-02T08:47:35.868Z,20.2
2017-05-02T08:48:43.953Z,20.2
2017-05-02T08:49:52.037Z,20.2
2017-05-02T08:51:00.124Z,20.2
2017-05-02T08:52:08.210Z,20.1
2017-05-02T08:53:16.298Z,20.1
2017-05-02T08:54:24.382Z,20.2
2017-05-02T08:55:32.468Z,20.1
2017-05-02T08:56:40.743Z,20.2
2017-05-02T08:57:48.651Z,20.3
2017-05-02T08:58:56.966Z,20.3
2017-05-02T09:00:04.813Z,20.2
2017-05-02T09:01:12.960Z,20.2
2017-05-02T09:02:21.326Z,20.3
2017-05-02T09:03:29.071Z,20.3
2017-05-02T09:04:37.162Z,20.3
2017-05-02T09:05:45.695Z,20.3
2017-05-02T09:06:53.328Z,20.3
2017-05-02T09:08:01.718Z,20.3
2017-05-02T09:09:09.670Z,20.3
2017-05-02T09:10:17.725Z,20.3
2017-05-02T09:11:25.687Z,20.3
2017-05-02T09:12:34.469Z,20.2
2017-05-02T09:13:42.304Z,20.3
2017-05-02T09:14:50.298Z,20.3
2017-05-02T09:15:58.117Z,20.3
2017-05-02T09:17:06.102Z,20.3
2017-05-02T09:18:14.189Z,20.3
2017-05-02T09:19:22.413Z,20.3
2017-05-02T09:20:30.357Z,20.3
2017-05-02T09:21:38.470Z,20.3
2017-05-02T09:22:46.543Z,20.3
2017-05-02T09:23:56.026Z,20.3
2017-05-02T09:25:02.703Z,20.3
2017-05-02T09:26:10.825Z,20.3
2017-05-02T09:27:18.874Z,20.4
2017-05-02T09:28:26.961Z,20.4
2017-05-02T09:29:35.049Z,20.3
2017-05-02T09:30:43.131Z,20.4
2017-05-02T09:31:51.241Z,20.4
2017-05-02T09:32:59.316Z,20.4
2017-05-02T09:34:07.389Z,20.4
2017-05-02T09:35:15.476Z,20.4
2017-05-02T09:36:23.561Z,20.3
2017-05-02T09:37:31.648Z,20.4
2017-05-02T09:38:39.736Z,20.4
2017-05-02T09:39:47.844Z,20.4
2017-05-02T09:40:56.028Z,20.3
2017-05-02T09:42:04.061Z,20.3
2017-05-02T09:43:12.312Z,20.4
2017-05-02T09:44:20.241Z,20.4
2017-05-02T09:45:28.815Z,20.4
2017-05-02T09:46:36.358Z,20.4
2017-05-02T09:47:44.570Z,20.4
2017-05-02T09:48:52.628Z,20.4
2017-05-02T09:50:00.709Z,20.4
2017-05-02T09:52:16.960Z,20.3
2017-05-02T09:53:24.866Z,20.4
2017-05-02T09:54:32.947Z,20.4
2017-05-02T09:55:41.741Z,20.4
2017-05-02T09:56:49.621Z,20.3
2017-05-02T09:57:57.423Z,20.4
2017-05-02T09:59:05.287Z,20.4
2017-05-02T10:00:13.931Z,20.4
2017-05-02T10:01:22.160Z,20.3
2017-05-02T10:02:30.231Z,20.3
2017-05-02T10:03:37.631Z,20.3
2017-05-02T10:04:45.716Z,20.4
2017-05-02T10:05:53.985Z,20.3
2017-05-02T10:07:01.891Z,20.3
2017-05-02T10:08:09.979Z,20.4
2017-05-02T10:09:18.228Z,20.4
2017-05-02T10:10:26.149Z,20.4
2017-05-02T10:11:34.908Z,20.3
2017-05-02T10:12:42.322Z,20.3
2017-05-02T10:13:50.799Z,20.3
2017-05-02T10:14:58.922Z,20.3
2017-05-02T10:16:06.581Z,20.3
2017-05-02T10:17:15.115Z,20.3
2017-05-02T10:18:22.753Z,20.3
2017-05-02T10:19:30.840Z,20.3
2017-05-02T10:20:38.924Z,20.3
2017-05-02T10:21:47.012Z,20.3
2017-05-02T10:22:55.121Z,20.3
2017-05-02T10:24:03.182Z,20.2
2017-05-02T10:25:11.960Z,20.2
2017-05-02T10:26:19.863Z,20.3
2017-05-02T10:27:27.440Z,20.3
2017-05-02T10:28:35.526Z,20.3
2017-05-02T10:29:43.614Z,20.3
2017-05-02T10:30:51.729Z,20.3
2017-05-02T10:31:59.802Z,20.3
2017-05-02T10:33:07.999Z,20.3
2017-05-02T10:34:15.956Z,20.3
2017-05-02T10:35:24.083Z,20.3
2017-05-02T10:36:32.574Z,20.3
2017-05-02T10:37:40.371Z,20.3
2017-05-02T10:38:48.454Z,20.2
2017-05-02T10:39:56.599Z,20.3
2017-05-02T10:41:05.124Z,20.3
2017-05-02T10:42:12.565Z,20.3
2017-05-02T10:43:20.643Z,20.4
2017-05-02T10:44:29.064Z,20.3
2017-05-02T10:45:36.818Z,20.4
2017-05-02T10:46:44.905Z,20.4
2017-05-02T10:47:53.554Z,20.3
2017-05-02T10:49:01.074Z,20.4
2017-05-02T10:50:09.160Z,20.4
2017-05-02T10:51:17.255Z,20.4
2017-05-02T10:52:25.332Z,20.4
2017-05-02T10:53:34.766Z,20.4
2017-05-02T10:54:41.514Z,20.3
2017-05-02T10:55:49.846Z,20.4
2017-05-02T10:56:57.844Z,20.3
2017-05-02T10:58:05.778Z,20.4
2017-05-02T10:59:14.477Z,20.4
2017-05-02T11:00:21.949Z,20.3
2017-05-02T11:01:30.030Z,20.3
2017-05-02T11:02:38.120Z,20.3
2017-05-02T11:03:46.206Z,20.4
2017-05-02T11:04:54.300Z,20.4
2017-05-02T11:06:02.378Z,20.4
2017-05-02T11:07:10.463Z,20.4
2017-05-02T11:08:18.548Z,20.3
2017-05-02T11:09:26.635Z,20.3
2017-05-02T11:10:34.720Z,20.3
2017-05-02T11:11:42.808Z,20.4
2017-05-02T11:12:50.892Z,20.4
2017-05-02T11:13:58.980Z,20.3
2017-05-02T11:15:07.066Z,20.3
2017-05-02T11:16:15.160Z,20.3
2017-05-02T11:17:23.246Z,20.3
2017-05-02T11:18:31.330Z,20.3
2017-05-02T11:19:39.419Z,20.3
2017-05-02T11:20:47.502Z,20.3
2017-05-02T11:21:55.587Z,20.3
2017-05-02T11:23:03.675Z,20.3
2017-05-02T11:24:11.760Z,20.3
2017-05-02T11:25:19.851Z,20.2
2017-05-02T11:26:27.958Z,20.3
2017-05-02T11:27:36.018Z,20.2
2017-05-02T11:28:44.103Z,20.3
2017-05-02T11:29:52.191Z,20.3
2017-05-02T11:31:00.275Z,20.3
2017-05-02T11:32:08.361Z,20.3
2017-05-02T11:33:16.513Z,20.3
2017-05-02T11:34:24.847Z,20.3
2017-05-02T11:35:32.622Z,20.4
2017-05-02T11:36:40.814Z,20.3
2017-05-02T11:37:48.904Z,20.3
2017-05-02T11:38:56.997Z,20.3
2017-05-02T11:40:04.978Z,20.2
2017-05-02T11:41:13.066Z,20.3
2017-05-02T11:42:21.151Z,20.3
2017-05-02T11:43:29.236Z,20.3
2017-05-02T11:44:37.321Z,20.2
2017-05-02T11:45:45.408Z,20.3
2017-05-02T11:46:53.493Z,20.3
2017-05-02T11:48:01.587Z,20.3
2017-05-02T11:49:09.666Z,20.3
2017-05-02T11:50:17.756Z,20.2
2017-05-02T11:51:25.838Z,20.3
2017-05-02T11:52:33.925Z,20.4
2017-05-02T11:53:42.009Z,20.3
2017-05-02T11:54:50.097Z,20.4
2017-05-02T11:55:58.181Z,20.4
2017-05-02T11:57:06.267Z,20.4
2017-05-02T11:58:14.355Z,20.4
2017-05-02T11:59:22.442Z,20.4
2017-05-02T12:00:30.526Z,20.3
2017-05-02T12:01:38.615Z,20.3
2017-05-02T12:02:46.705Z,20.3
2017-05-02T12:03:54.786Z,20.4
2017-05-02T12:05:02.872Z,20.4
2017-05-02T12:06:10.956Z,20.4
2017-05-02T12:07:19.042Z,20.4
2017-05-02T12:08:27.130Z,20.3
2017-05-02T12:09:35.217Z,20.4
2017-05-02T12:10:43.309Z,20.3
2017-05-02T12:11:51.395Z,20.4
2017-05-02T12:12:59.484Z,20.4
2017-05-02T12:14:07.567Z,20.3
2017-05-02T12:15:15.651Z,20.4
2017-05-02T12:16:23.738Z,20.3
2017-05-02T12:17:31.824Z,20.4
2017-05-02T12:18:39.910Z,20.4
2017-05-02T12:19:47.998Z,20.4
2017-05-02T12:20:56.085Z,20.4
2017-05-02T12:22:04.176Z,20.4
2017-05-02T12:23:12.259Z,20.3
2017-05-02T12:24:20.597Z,20.3
2017-05-02T12:25:28.427Z,20.3
2017-05-02T12:26:37.020Z,20.4
2017-05-02T12:27:44.600Z,20.4
2017-05-02T12:28:52.688Z,20.4
2017-05-02T12:30:00.779Z,20.3
2017-05-02T12:31:08.858Z,20.3
2017-05-02T12:32:16.945Z,20.4
2017-05-02T12:33:25.029Z,20.4
2017-05-02T12:34:33.127Z,20.3
2017-05-02T12:35:41.200Z,20.3
2017-05-02T12:36:49.287Z,20.4
2017-05-02T12:37:57.716Z,20.3
2017-05-02T12:39:05.636Z,20.4
2017-05-02T12:40:14.432Z,20.4
2017-05-02T12:41:21.905Z,20.3
2017-05-02T12:42:30.240Z,20.4
2017-05-02T12:43:37.838Z,20.3
2017-05-02T12:44:46.415Z,20.4
2017-05-02T12:45:53.992Z,20.4
2017-05-02T12:47:02.062Z,20.3
2017-05-02T12:48:10.617Z,20.3
2017-05-02T12:49:18.834Z,20.4
2017-05-02T12:50:26.329Z,20.4
2017-05-02T12:51:34.641Z,20.3
2017-05-02T12:52:42.498Z,20.3
2017-05-02T12:53:51.130Z,20.5
2017-05-02T12:57:15.155Z,20.3
2017-05-02T12:58:22.932Z,20.3
2017-05-02T12:59:31.023Z,20.4
2017-05-02T13:00:39.101Z,20.3
2017-05-02T13:01:47.187Z,20.3
2017-05-02T13:02:55.731Z,20.3
2017-05-02T13:04:03.429Z,20.3
2017-05-02T13:05:11.886Z,20.4
2017-05-02T13:06:19.811Z,20.4
2017-05-02T13:07:27.921Z,20.4
2017-05-02T13:08:36.117Z,20.4
2017-05-02T13:09:43.789Z,20.3
2017-05-02T13:10:52.238Z,20.4
2017-05-02T13:11:59.962Z,20.4
2017-05-02T13:13:08.200Z,20.3
2017-05-02T13:14:16.517Z,20.3
2017-05-02T13:15:24.619Z,20.4
2017-05-02T13:16:32.305Z,20.3
2017-05-02T13:17:40.442Z,20.4
2017-05-02T13:18:48.479Z,20.3
2017-05-02T13:19:56.563Z,20.3
2017-05-02T13:21:04.653Z,20.4
2017-05-02T13:22:12.736Z,20.4
2017-05-02T13:23:20.824Z,20.4
2017-05-02T13:24:28.911Z,20.4
2017-05-02T13:25:37.022Z,20.4
2017-05-02T13:26:45.086Z,20.4
2017-05-02T13:27:53.196Z,20.4
2017-05-02T13:29:01.254Z,20.3
2017-05-02T13:30:09.347Z,20.3
2017-05-02T13:31:17.427Z,20.3
2017-05-02T13:32:25.513Z,20.4
2017-05-02T13:33:33.600Z,20.3
2017-05-02T13:34:41.682Z,20.4
2017-05-02T13:35:49.773Z,20.4
2017-05-02T13:36:57.858Z,20.3
2017-05-02T13:38:05.945Z,20.3
2017-05-02T13:39:14.033Z,20.4
2017-05-02T13:40:22.114Z,20.3
2017-05-02T13:41:30.203Z,20.4
2017-05-02T13:42:38.299Z,20.4
2017-05-02T13:43:46.381Z,20.3
2017-05-02T13:44:54.467Z,20.3
2017-05-02T13:46:02.553Z,20.3
2017-05-02T13:47:10.635Z,20.3
2017-05-02T13:48:18.724Z,20.3
2017-05-02T13:49:26.808Z,20.3
2017-05-02T13:50:34.896Z,20.3
2017-05-02T13:51:42.981Z,20.3
2017-05-02T13:52:51.067Z,20.2
2017-05-02T13:53:59.152Z,20.3
2017-05-02T13:55:07.243Z,20.3
2017-05-02T13:56:15.326Z,20.2
2017-05-02T13:57:23.416Z,20.3
2017-05-02T13:58:31.503Z,20.3
2017-05-02T13:59:39.588Z,20.3
2017-05-02T14:00:47.676Z,20.3
2017-05-02T14:01:55.763Z,20.3
2017-05-02T14:03:03.846Z,20.3
2017-05-02T14:04:12.110Z,20.2
2017-05-02T14:05:20.016Z,20.2
2017-05-02T14:06:28.100Z,20.2
2017-05-02T14:07:36.190Z,20.3
2017-05-02T14:08:44.275Z,20.2
2017-05-02T14:09:52.361Z,20.3
2017-05-02T14:11:00.459Z,20.3
2017-05-02T14:12:08.531Z,20.2
2017-05-02T14:13:16.619Z,20.3
2017-05-02T14:14:24.702Z,20.3
2017-05-02T14:15:32.813Z,20.3
2017-05-02T14:16:40.874Z,20.2
2017-05-02T14:17:48.960Z,20.3
2017-05-02T14:18:57.046Z,20.3
2017-05-02T14:20:05.131Z,20.3
2017-05-02T14:21:13.228Z,20.3
2017-05-02T14:22:21.305Z,20.3
2017-05-02T14:23:29.391Z,20.3
2017-05-02T14:24:37.484Z,20.3
2017-05-02T14:25:45.567Z,20.2
2017-05-02T14:26:53.655Z,20.2
2017-05-02T14:28:01.740Z,20.2
2017-05-02T14:29:09.828Z,20.3
2017-05-02T14:30:17.914Z,20.2
2017-05-02T14:31:26.000Z,20.2
2017-05-02T14:32:34.083Z,20.2
2017-05-02T14:33:42.169Z,20.2
2017-05-02T14:34:50.254Z,20.2
2017-05-02T14:35:58.350Z,20.2
2017-05-02T14:37:06.425Z,20.2
2017-05-02T14:38:14.525Z,20.2
2017-05-02T14:39:22.597Z,20.2
2017-05-02T14:40:30.683Z,20.2
2017-05-02T14:41:38.776Z,20.1
2017-05-02T14:42:46.856Z,20.2
2017-05-02T14:43:54.939Z,20.2
2017-05-02T14:45:03.023Z,20.1
2017-05-02T14:46:11.114Z,20.1
2017-05-02T14:47:19.197Z,20.2
2017-05-02T14:48:27.281Z,20.1
2017-05-02T14:49:35.368Z,20.2
2017-05-02T14:50:43.453Z,20.2
2017-05-02T14:51:51.541Z,20.2
2017-05-02T14:52:59.627Z,20.1
2017-05-02T14:54:07.708Z,20.1
2017-05-02T14:55:15.833Z,20.1
2017-05-02T14:56:23.881Z,20.1
2017-05-02T14:57:31.967Z,20.1
2017-05-02T14:58:40.054Z,20.0
2017-05-02T14:59:48.139Z,20.1
2017-05-02T15:00:56.226Z,20.1
2017-05-02T15:02:04.311Z,20.1
2017-05-02T15:03:12.397Z,20.1
2017-05-02T15:04:20.485Z,20.1
2017-05-02T15:05:28.569Z,20.0
2017-05-02T15:06:36.679Z,20.1
2017-05-02T15:07:44.742Z,20.1
2017-05-02T15:08:52.825Z,20.0
2017-05-02T15:10:00.953Z,20.1